sensor_id;sensor_type;location;lat;lon;timestamp;P1;durP1;ratioP1;P2;durP2;ratioP2
3565;SDS011;1797;51.844;7.684;2024-03-22T00:01:40;26.63;;;12.60;;
3565;SDS011;1797;51.844;7.684;2024-03-22T00:04:06;33.73;;;12.07;;
3565;SDS011;1797;51.844;7.684;2024-03-22T00:06:32;29.93;;;10.40;;
3565;SDS011;1797;51.844;7.684;2024-03-22T00:08:58;67.63;;;12.30;;
3565;SDS011;1797;51.844;7.684;2024-03-22T00:11:24;17.63;;;7.50;;
3565;SDS011;1797;51.844;7.684;2024-03-22T00:13:50;24.00;;;9.93;;
3565;SDS011;1797;51.844;7.684;2024-03-22T00:16:16;32.20;;;12.83;;
3565;SDS011;1797;51.844;7.684;2024-03-22T00:18:42;28.33;;;11.60;;
3565;SDS011;1797;51.844;7.684;2024-03-22T00:21:08;25.03;;;10.73;;
3565;SDS011;1797;51.844;7.684;2024-03-22T00:23:34;46.53;;;16.23;;
3565;SDS011;1797;51.844;7.684;2024-03-22T00:25:59;30.27;;;12.60;;
3565;SDS011;1797;51.844;7.684;2024-03-22T00:28:25;28.30;;;10.40;;
3565;SDS011;1797;51.844;7.684;2024-03-22T00:30:51;31.33;;;9.60;;
3565;SDS011;1797;51.844;7.684;2024-03-22T00:33:17;25.60;;;14.20;;
3565;SDS011;1797;51.844;7.684;2024-03-22T00:35:43;53.30;;;16.80;;
3565;SDS011;1797;51.844;7.684;2024-03-22T00:38:09;42.10;;;16.00;;
3565;SDS011;1797;51.844;7.684;2024-03-22T00:40:35;37.67;;;11.77;;
3565;SDS011;1797;51.844;7.684;2024-03-22T00:43:01;36.00;;;16.20;;
3565;SDS011;1797;51.844;7.684;2024-03-22T00:45:27;46.77;;;14.40;;
3565;SDS011;1797;51.844;7.684;2024-03-22T00:47:53;24.90;;;10.68;;
3565;SDS011;1797;51.844;7.684;2024-03-22T00:50:19;31.63;;;10.35;;
3565;SDS011;1797;51.844;7.684;2024-03-22T00:52:45;28.90;;;14.53;;
3565;SDS011;1797;51.844;7.684;2024-03-22T00:55:11;30.70;;;12.80;;
3565;SDS011;1797;51.844;7.684;2024-03-22T00:57:37;46.13;;;12.47;;
3565;SDS011;1797;51.844;7.684;2024-03-22T01:00:03;23.00;;;10.40;;
3565;SDS011;1797;51.844;7.684;2024-03-22T01:02:29;46.33;;;12.38;;
3565;SDS011;1797;51.844;7.684;2024-03-22T01:04:55;23.33;;;10.20;;
3565;SDS011;1797;51.844;7.684;2024-03-22T01:07:21;32.35;;;10.25;;
3565;SDS011;1797;51.844;7.684;2024-03-22T01:09:47;32.43;;;10.20;;
3565;SDS011;1797;51.844;7.684;2024-03-22T01:12:13;17.43;;;8.47;;
3565;SDS011;1797;51.844;7.684;2024-03-22T01:14:39;24.63;;;9.63;;
3565;SDS011;1797;51.844;7.684;2024-03-22T01:17:05;20.10;;;11.27;;
3565;SDS011;1797;51.844;7.684;2024-03-22T01:19:31;30.57;;;10.60;;
3565;SDS011;1797;51.844;7.684;2024-03-22T01:21:57;24.30;;;10.97;;
3565;SDS011;1797;51.844;7.684;2024-03-22T01:24:23;32.50;;;8.90;;
3565;SDS011;1797;51.844;7.684;2024-03-22T01:26:49;36.37;;;10.67;;
3565;SDS011;1797;51.844;7.684;2024-03-22T01:29:15;31.70;;;12.30;;
3565;SDS011;1797;51.844;7.684;2024-03-22T01:31:41;21.83;;;10.90;;
3565;SDS011;1797;51.844;7.684;2024-03-22T01:34:07;17.80;;;9.57;;
3565;SDS011;1797;51.844;7.684;2024-03-22T01:36:33;20.75;;;10.43;;
3565;SDS011;1797;51.844;7.684;2024-03-22T01:38:59;21.23;;;8.48;;
3565;SDS011;1797;51.844;7.684;2024-03-22T01:41:25;39.33;;;11.10;;
3565;SDS011;1797;51.844;7.684;2024-03-22T01:43:51;13.80;;;9.00;;
3565;SDS011;1797;51.844;7.684;2024-03-22T01:46:16;15.43;;;6.43;;
3565;SDS011;1797;51.844;7.684;2024-03-22T01:48:42;20.77;;;7.50;;
3565;SDS011;1797;51.844;7.684;2024-03-22T01:51:09;26.27;;;9.13;;
3565;SDS011;1797;51.844;7.684;2024-03-22T01:53:35;27.10;;;9.35;;
3565;SDS011;1797;51.844;7.684;2024-03-22T01:56:02;38.47;;;10.07;;
3565;SDS011;1797;51.844;7.684;2024-03-22T01:58:28;24.67;;;9.30;;
3565;SDS011;1797;51.844;7.684;2024-03-22T02:00:54;24.70;;;10.17;;
3565;SDS011;1797;51.844;7.684;2024-03-22T02:03:21;25.73;;;9.60;;
3565;SDS011;1797;51.844;7.684;2024-03-22T02:05:47;30.17;;;9.80;;
3565;SDS011;1797;51.844;7.684;2024-03-22T02:08:13;30.07;;;10.10;;
3565;SDS011;1797;51.844;7.684;2024-03-22T02:10:39;31.93;;;9.87;;
3565;SDS011;1797;51.844;7.684;2024-03-22T02:13:05;26.05;;;9.48;;
3565;SDS011;1797;51.844;7.684;2024-03-22T02:15:31;22.75;;;8.88;;
3565;SDS011;1797;51.844;7.684;2024-03-22T02:17:57;20.67;;;8.33;;
3565;SDS011;1797;51.844;7.684;2024-03-22T02:20:23;22.27;;;10.97;;
3565;SDS011;1797;51.844;7.684;2024-03-22T02:22:49;17.77;;;6.33;;
3565;SDS011;1797;51.844;7.684;2024-03-22T02:25:15;26.73;;;9.47;;
3565;SDS011;1797;51.844;7.684;2024-03-22T02:27:41;17.97;;;8.07;;
3565;SDS011;1797;51.844;7.684;2024-03-22T02:30:07;34.73;;;11.60;;
3565;SDS011;1797;51.844;7.684;2024-03-22T02:32:33;27.83;;;12.10;;
3565;SDS011;1797;51.844;7.684;2024-03-22T02:34:59;20.70;;;9.37;;
3565;SDS011;1797;51.844;7.684;2024-03-22T02:37:25;33.92;;;11.32;;
3565;SDS011;1797;51.844;7.684;2024-03-22T02:39:53;26.30;;;10.13;;
3565;SDS011;1797;51.844;7.684;2024-03-22T02:42:19;38.23;;;9.63;;
3565;SDS011;1797;51.844;7.684;2024-03-22T02:44:45;29.37;;;7.60;;
3565;SDS011;1797;51.844;7.684;2024-03-22T02:47:11;23.37;;;9.17;;
3565;SDS011;1797;51.844;7.684;2024-03-22T02:49:40;30.30;;;8.35;;
3565;SDS011;1797;51.844;7.684;2024-03-22T02:52:06;22.40;;;11.40;;
3565;SDS011;1797;51.844;7.684;2024-03-22T02:54:32;22.33;;;9.23;;
3565;SDS011;1797;51.844;7.684;2024-03-22T02:56:58;28.37;;;10.47;;
3565;SDS011;1797;51.844;7.684;2024-03-22T02:59:26;34.97;;;8.65;;
3565;SDS011;1797;51.844;7.684;2024-03-22T03:01:52;18.55;;;8.60;;
3565;SDS011;1797;51.844;7.684;2024-03-22T03:04:18;29.20;;;8.90;;
3565;SDS011;1797;51.844;7.684;2024-03-22T03:06:44;27.40;;;8.63;;
3565;SDS011;1797;51.844;7.684;2024-03-22T03:09:11;34.70;;;14.50;;
3565;SDS011;1797;51.844;7.684;2024-03-22T03:11:40;31.58;;;9.48;;
3565;SDS011;1797;51.844;7.684;2024-03-22T03:14:06;27.88;;;10.10;;
3565;SDS011;1797;51.844;7.684;2024-03-22T03:16:32;28.77;;;9.93;;
3565;SDS011;1797;51.844;7.684;2024-03-22T03:18:58;21.43;;;7.77;;
3565;SDS011;1797;51.844;7.684;2024-03-22T03:21:24;22.40;;;9.37;;
3565;SDS011;1797;51.844;7.684;2024-03-22T03:23:50;17.90;;;7.47;;
3565;SDS011;1797;51.844;7.684;2024-03-22T03:26:16;16.08;;;8.35;;
3565;SDS011;1797;51.844;7.684;2024-03-22T03:28:42;19.23;;;9.43;;
3565;SDS011;1797;51.844;7.684;2024-03-22T03:31:08;27.50;;;10.77;;
3565;SDS011;1797;51.844;7.684;2024-03-22T03:33:34;18.60;;;9.47;;
3565;SDS011;1797;51.844;7.684;2024-03-22T03:36:00;28.80;;;8.97;;
3565;SDS011;1797;51.844;7.684;2024-03-22T03:38:26;32.57;;;9.80;;
3565;SDS011;1797;51.844;7.684;2024-03-22T03:40:52;9.63;;;6.80;;
3565;SDS011;1797;51.844;7.684;2024-03-22T03:43:18;18.60;;;10.70;;
3565;SDS011;1797;51.844;7.684;2024-03-22T03:45:44;16.00;;;8.23;;
3565;SDS011;1797;51.844;7.684;2024-03-22T03:48:10;27.50;;;10.00;;
3565;SDS011;1797;51.844;7.684;2024-03-22T03:50:36;31.70;;;11.77;;
3565;SDS011;1797;51.844;7.684;2024-03-22T03:53:02;29.40;;;9.17;;
3565;SDS011;1797;51.844;7.684;2024-03-22T03:55:28;22.00;;;10.10;;
3565;SDS011;1797;51.844;7.684;2024-03-22T03:57:54;11.47;;;5.67;;
3565;SDS011;1797;51.844;7.684;2024-03-22T04:00:20;20.97;;;8.37;;
3565;SDS011;1797;51.844;7.684;2024-03-22T04:02:48;17.00;;;8.00;;
3565;SDS011;1797;51.844;7.684;2024-03-22T04:05:14;22.90;;;9.85;;
3565;SDS011;1797;51.844;7.684;2024-03-22T04:07:40;27.35;;;10.57;;
3565;SDS011;1797;51.844;7.684;2024-03-22T04:10:07;17.75;;;7.35;;
3565;SDS011;1797;51.844;7.684;2024-03-22T04:12:33;15.60;;;7.97;;
3565;SDS011;1797;51.844;7.684;2024-03-22T04:14:59;29.27;;;8.13;;
3565;SDS011;1797;51.844;7.684;2024-03-22T04:17:25;20.15;;;10.02;;
3565;SDS011;1797;51.844;7.684;2024-03-22T04:19:51;20.13;;;8.23;;
3565;SDS011;1797;51.844;7.684;2024-03-22T04:22:18;17.10;;;7.17;;
3565;SDS011;1797;51.844;7.684;2024-03-22T04:24:44;45.25;;;12.90;;
3565;SDS011;1797;51.844;7.684;2024-03-22T04:27:10;14.32;;;8.00;;
3565;SDS011;1797;51.844;7.684;2024-03-22T04:29:36;19.93;;;7.60;;
3565;SDS011;1797;51.844;7.684;2024-03-22T04:32:02;18.57;;;10.10;;
3565;SDS011;1797;51.844;7.684;2024-03-22T04:34:28;31.15;;;11.27;;
3565;SDS011;1797;51.844;7.684;2024-03-22T04:36:53;38.30;;;10.30;;
3565;SDS011;1797;51.844;7.684;2024-03-22T04:39:20;31.20;;;13.33;;
3565;SDS011;1797;51.844;7.684;2024-03-22T04:41:46;27.23;;;6.22;;
3565;SDS011;1797;51.844;7.684;2024-03-22T04:44:11;14.03;;;7.60;;
3565;SDS011;1797;51.844;7.684;2024-03-22T04:46:37;18.37;;;6.40;;
3565;SDS011;1797;51.844;7.684;2024-03-22T04:49:03;25.20;;;9.47;;
3565;SDS011;1797;51.844;7.684;2024-03-22T04:51:29;21.70;;;9.37;;
3565;SDS011;1797;51.844;7.684;2024-03-22T04:53:55;36.33;;;11.20;;
3565;SDS011;1797;51.844;7.684;2024-03-22T04:56:21;15.33;;;6.60;;
3565;SDS011;1797;51.844;7.684;2024-03-22T04:58:47;9.18;;;4.68;;
3565;SDS011;1797;51.844;7.684;2024-03-22T05:01:13;21.20;;;8.87;;
3565;SDS011;1797;51.844;7.684;2024-03-22T05:03:39;15.70;;;8.00;;
3565;SDS011;1797;51.844;7.684;2024-03-22T05:06:06;32.20;;;12.57;;
3565;SDS011;1797;51.844;7.684;2024-03-22T05:08:32;20.73;;;10.53;;
3565;SDS011;1797;51.844;7.684;2024-03-22T05:10:58;18.02;;;8.98;;
3565;SDS011;1797;51.844;7.684;2024-03-22T05:13:24;34.17;;;8.23;;
3565;SDS011;1797;51.844;7.684;2024-03-22T05:15:50;25.90;;;10.82;;
3565;SDS011;1797;51.844;7.684;2024-03-22T05:18:16;19.23;;;8.23;;
3565;SDS011;1797;51.844;7.684;2024-03-22T05:20:42;24.47;;;10.07;;
3565;SDS011;1797;51.844;7.684;2024-03-22T05:23:08;16.75;;;8.13;;
3565;SDS011;1797;51.844;7.684;2024-03-22T05:25:34;16.37;;;7.73;;
3565;SDS011;1797;51.844;7.684;2024-03-22T05:28:00;14.27;;;7.70;;
3565;SDS011;1797;51.844;7.684;2024-03-22T05:30:26;41.33;;;7.97;;
3565;SDS011;1797;51.844;7.684;2024-03-22T05:32:52;9.60;;;6.60;;
3565;SDS011;1797;51.844;7.684;2024-03-22T05:35:18;30.30;;;8.40;;
3565;SDS011;1797;51.844;7.684;2024-03-22T05:37:44;18.23;;;10.07;;
3565;SDS011;1797;51.844;7.684;2024-03-22T05:40:11;29.70;;;10.40;;
3565;SDS011;1797;51.844;7.684;2024-03-22T05:42:37;19.77;;;7.00;;
3565;SDS011;1797;51.844;7.684;2024-03-22T05:45:03;31.97;;;9.93;;
3565;SDS011;1797;51.844;7.684;2024-03-22T05:47:29;20.93;;;7.23;;
3565;SDS011;1797;51.844;7.684;2024-03-22T05:49:56;21.87;;;10.60;;
3565;SDS011;1797;51.844;7.684;2024-03-22T05:52:22;28.57;;;9.00;;
3565;SDS011;1797;51.844;7.684;2024-03-22T05:54:48;18.23;;;8.27;;
3565;SDS011;1797;51.844;7.684;2024-03-22T05:57:14;16.13;;;6.10;;
3565;SDS011;1797;51.844;7.684;2024-03-22T05:59:40;17.13;;;10.50;;
3565;SDS011;1797;51.844;7.684;2024-03-22T06:02:06;22.50;;;6.93;;
3565;SDS011;1797;51.844;7.684;2024-03-22T06:04:32;9.23;;;6.28;;
3565;SDS011;1797;51.844;7.684;2024-03-22T06:06:58;17.90;;;10.10;;
3565;SDS011;1797;51.844;7.684;2024-03-22T06:09:25;22.92;;;10.05;;
3565;SDS011;1797;51.844;7.684;2024-03-22T06:12:21;24.50;;;8.57;;
3565;SDS011;1797;51.844;7.684;2024-03-22T06:14:47;8.60;;;4.83;;
3565;SDS011;1797;51.844;7.684;2024-03-22T06:17:13;50.10;;;10.80;;
3565;SDS011;1797;51.844;7.684;2024-03-22T06:19:40;15.50;;;7.50;;
3565;SDS011;1797;51.844;7.684;2024-03-22T06:22:06;18.73;;;9.77;;
3565;SDS011;1797;51.844;7.684;2024-03-22T06:24:32;21.47;;;9.67;;
3565;SDS011;1797;51.844;7.684;2024-03-22T06:26:58;31.00;;;8.40;;
3565;SDS011;1797;51.844;7.684;2024-03-22T06:29:25;20.65;;;7.78;;
3565;SDS011;1797;51.844;7.684;2024-03-22T06:31:51;18.57;;;9.60;;
3565;SDS011;1797;51.844;7.684;2024-03-22T06:34:17;28.33;;;9.10;;
3565;SDS011;1797;51.844;7.684;2024-03-22T06:36:43;35.63;;;10.90;;
3565;SDS011;1797;51.844;7.684;2024-03-22T06:39:09;12.37;;;6.47;;
3565;SDS011;1797;51.844;7.684;2024-03-22T06:41:35;21.40;;;10.23;;
3565;SDS011;1797;51.844;7.684;2024-03-22T06:44:02;10.90;;;3.73;;
3565;SDS011;1797;51.844;7.684;2024-03-22T06:46:28;10.50;;;6.60;;
3565;SDS011;1797;51.844;7.684;2024-03-22T06:48:54;10.60;;;6.77;;
3565;SDS011;1797;51.844;7.684;2024-03-22T06:51:20;13.47;;;6.20;;
3565;SDS011;1797;51.844;7.684;2024-03-22T06:53:46;20.03;;;5.50;;
3565;SDS011;1797;51.844;7.684;2024-03-22T06:56:13;21.42;;;5.85;;
3565;SDS011;1797;51.844;7.684;2024-03-22T06:58:39;21.03;;;8.30;;
3565;SDS011;1797;51.844;7.684;2024-03-22T07:01:05;7.03;;;6.43;;
3565;SDS011;1797;51.844;7.684;2024-03-22T07:03:31;12.90;;;5.87;;
3565;SDS011;1797;51.844;7.684;2024-03-22T07:05:57;19.87;;;9.70;;
3565;SDS011;1797;51.844;7.684;2024-03-22T07:08:23;13.20;;;6.10;;
3565;SDS011;1797;51.844;7.684;2024-03-22T07:10:51;26.10;;;9.73;;
3565;SDS011;1797;51.844;7.684;2024-03-22T07:13:18;19.97;;;8.23;;
3565;SDS011;1797;51.844;7.684;2024-03-22T07:15:44;25.53;;;9.20;;
3565;SDS011;1797;51.844;7.684;2024-03-22T07:18:12;15.30;;;5.80;;
3565;SDS011;1797;51.844;7.684;2024-03-22T07:20:38;17.23;;;8.70;;
3565;SDS011;1797;51.844;7.684;2024-03-22T07:23:04;12.80;;;6.67;;
3565;SDS011;1797;51.844;7.684;2024-03-22T07:25:30;38.10;;;8.93;;
3565;SDS011;1797;51.844;7.684;2024-03-22T07:27:56;16.10;;;7.57;;
3565;SDS011;1797;51.844;7.684;2024-03-22T07:30:22;14.00;;;7.33;;
3565;SDS011;1797;51.844;7.684;2024-03-22T07:32:48;9.70;;;7.60;;
3565;SDS011;1797;51.844;7.684;2024-03-22T07:35:14;21.43;;;6.63;;
3565;SDS011;1797;51.844;7.684;2024-03-22T07:37:40;17.80;;;6.37;;
3565;SDS011;1797;51.844;7.684;2024-03-22T07:40:06;28.47;;;9.23;;
3565;SDS011;1797;51.844;7.684;2024-03-22T07:42:32;21.43;;;8.67;;
3565;SDS011;1797;51.844;7.684;2024-03-22T07:44:58;25.53;;;8.77;;
3565;SDS011;1797;51.844;7.684;2024-03-22T07:47:24;8.90;;;4.90;;
3565;SDS011;1797;51.844;7.684;2024-03-22T07:49:50;21.33;;;8.13;;
3565;SDS011;1797;51.844;7.684;2024-03-22T07:52:16;18.40;;;9.00;;
3565;SDS011;1797;51.844;7.684;2024-03-22T07:54:42;12.40;;;5.63;;
3565;SDS011;1797;51.844;7.684;2024-03-22T07:57:08;18.47;;;6.93;;
3565;SDS011;1797;51.844;7.684;2024-03-22T07:59:35;24.20;;;7.17;;
3565;SDS011;1797;51.844;7.684;2024-03-22T08:02:02;10.67;;;6.20;;
3565;SDS011;1797;51.844;7.684;2024-03-22T08:04:30;22.27;;;8.63;;
3565;SDS011;1797;51.844;7.684;2024-03-22T08:06:56;41.60;;;9.73;;
3565;SDS011;1797;51.844;7.684;2024-03-22T08:09:22;13.13;;;8.10;;
3565;SDS011;1797;51.844;7.684;2024-03-22T08:11:48;14.23;;;7.50;;
3565;SDS011;1797;51.844;7.684;2024-03-22T08:14:14;10.93;;;6.27;;
3565;SDS011;1797;51.844;7.684;2024-03-22T08:16:41;16.90;;;7.13;;
3565;SDS011;1797;51.844;7.684;2024-03-22T08:19:07;10.70;;;6.50;;
3565;SDS011;1797;51.844;7.684;2024-03-22T08:21:33;22.07;;;8.50;;
3565;SDS011;1797;51.844;7.684;2024-03-22T08:24:02;19.33;;;7.40;;
3565;SDS011;1797;51.844;7.684;2024-03-22T08:26:30;16.93;;;8.40;;
3565;SDS011;1797;51.844;7.684;2024-03-22T08:29:04;4.87;;;3.90;;
3565;SDS011;1797;51.844;7.684;2024-03-22T08:31:30;16.67;;;7.20;;
3565;SDS011;1797;51.844;7.684;2024-03-22T08:33:56;21.23;;;7.23;;
3565;SDS011;1797;51.844;7.684;2024-03-22T08:36:22;27.60;;;7.43;;
3565;SDS011;1797;51.844;7.684;2024-03-22T08:38:49;15.73;;;6.90;;
3565;SDS011;1797;51.844;7.684;2024-03-22T08:41:14;27.40;;;8.53;;
3565;SDS011;1797;51.844;7.684;2024-03-22T08:43:40;14.93;;;6.60;;
3565;SDS011;1797;51.844;7.684;2024-03-22T08:46:07;12.53;;;4.60;;
3565;SDS011;1797;51.844;7.684;2024-03-22T08:48:33;15.40;;;6.63;;
3565;SDS011;1797;51.844;7.684;2024-03-22T08:50:59;20.73;;;5.67;;
3565;SDS011;1797;51.844;7.684;2024-03-22T08:53:25;20.70;;;5.77;;
3565;SDS011;1797;51.844;7.684;2024-03-22T08:55:51;41.07;;;9.73;;
3565;SDS011;1797;51.844;7.684;2024-03-22T08:58:17;16.73;;;5.40;;
3565;SDS011;1797;51.844;7.684;2024-03-22T09:00:43;15.77;;;5.27;;
3565;SDS011;1797;51.844;7.684;2024-03-22T09:03:10;10.60;;;7.63;;
3565;SDS011;1797;51.844;7.684;2024-03-22T09:05:36;13.80;;;5.73;;
3565;SDS011;1797;51.844;7.684;2024-03-22T09:08:02;5.03;;;4.07;;
3565;SDS011;1797;51.844;7.684;2024-03-22T09:10:29;13.43;;;5.43;;
3565;SDS011;1797;51.844;7.684;2024-03-22T09:12:55;10.33;;;5.80;;
3565;SDS011;1797;51.844;7.684;2024-03-22T09:15:21;3.10;;;2.90;;
3565;SDS011;1797;51.844;7.684;2024-03-22T09:17:47;3.17;;;1.77;;
3565;SDS011;1797;51.844;7.684;2024-03-22T09:20:13;13.53;;;3.80;;
3565;SDS011;1797;51.844;7.684;2024-03-22T09:22:39;11.23;;;6.53;;
3565;SDS011;1797;51.844;7.684;2024-03-22T09:25:05;10.40;;;4.47;;
3565;SDS011;1797;51.844;7.684;2024-03-22T09:27:32;10.40;;;4.87;;
3565;SDS011;1797;51.844;7.684;2024-03-22T09:29:58;17.73;;;5.67;;
3565;SDS011;1797;51.844;7.684;2024-03-22T09:32:26;15.83;;;5.60;;
3565;SDS011;1797;51.844;7.684;2024-03-22T09:34:52;10.60;;;3.23;;
3565;SDS011;1797;51.844;7.684;2024-03-22T09:37:18;5.03;;;2.57;;
3565;SDS011;1797;51.844;7.684;2024-03-22T09:39:44;10.40;;;6.20;;
3565;SDS011;1797;51.844;7.684;2024-03-22T09:42:10;10.77;;;4.37;;
3565;SDS011;1797;51.844;7.684;2024-03-22T09:44:39;32.93;;;7.50;;
3565;SDS011;1797;51.844;7.684;2024-03-22T09:47:07;10.13;;;5.67;;
3565;SDS011;1797;51.844;7.684;2024-03-22T09:49:34;9.20;;;6.10;;
3565;SDS011;1797;51.844;7.684;2024-03-22T09:52:00;9.30;;;5.77;;
3565;SDS011;1797;51.844;7.684;2024-03-22T09:54:28;10.80;;;6.10;;
3565;SDS011;1797;51.844;7.684;2024-03-22T09:56:55;10.70;;;5.50;;
3565;SDS011;1797;51.844;7.684;2024-03-22T09:59:22;22.63;;;7.83;;
3565;SDS011;1797;51.844;7.684;2024-03-22T10:01:48;13.67;;;4.30;;
3565;SDS011;1797;51.844;7.684;2024-03-22T10:04:15;10.10;;;4.63;;
3565;SDS011;1797;51.844;7.684;2024-03-22T10:06:41;19.13;;;8.90;;
3565;SDS011;1797;51.844;7.684;2024-03-22T10:09:07;12.03;;;6.20;;
3565;SDS011;1797;51.844;7.684;2024-03-22T10:11:34;15.83;;;5.67;;
3565;SDS011;1797;51.844;7.684;2024-03-22T10:14:00;16.03;;;6.60;;
3565;SDS011;1797;51.844;7.684;2024-03-22T10:16:32;10.67;;;5.50;;
3565;SDS011;1797;51.844;7.684;2024-03-22T10:18:58;20.10;;;7.43;;
3565;SDS011;1797;51.844;7.684;2024-03-22T10:21:24;9.53;;;4.97;;
3565;SDS011;1797;51.844;7.684;2024-03-22T10:23:50;14.23;;;5.43;;
3565;SDS011;1797;51.844;7.684;2024-03-22T10:26:16;12.27;;;4.50;;
3565;SDS011;1797;51.844;7.684;2024-03-22T10:28:46;14.57;;;5.90;;
3565;SDS011;1797;51.844;7.684;2024-03-22T10:31:12;20.23;;;4.37;;
3565;SDS011;1797;51.844;7.684;2024-03-22T10:33:40;15.27;;;4.80;;
3565;SDS011;1797;51.844;7.684;2024-03-22T10:36:06;10.37;;;4.27;;
3565;SDS011;1797;51.844;7.684;2024-03-22T10:38:33;16.30;;;6.60;;
3565;SDS011;1797;51.844;7.684;2024-03-22T10:41:02;20.50;;;4.33;;
3565;SDS011;1797;51.844;7.684;2024-03-22T10:43:28;5.97;;;4.33;;
3565;SDS011;1797;51.844;7.684;2024-03-22T10:45:55;8.80;;;6.50;;
3565;SDS011;1797;51.844;7.684;2024-03-22T10:48:22;8.87;;;5.27;;
3565;SDS011;1797;51.844;7.684;2024-03-22T10:50:49;15.97;;;7.40;;
3565;SDS011;1797;51.844;7.684;2024-03-22T10:53:19;13.50;;;6.20;;
3565;SDS011;1797;51.844;7.684;2024-03-22T10:55:47;20.40;;;6.03;;
3565;SDS011;1797;51.844;7.684;2024-03-22T10:58:15;10.30;;;7.00;;
3565;SDS011;1797;51.844;7.684;2024-03-22T11:00:41;21.07;;;6.00;;
3565;SDS011;1797;51.844;7.684;2024-03-22T11:03:08;13.17;;;5.83;;
3565;SDS011;1797;51.844;7.684;2024-03-22T11:05:34;14.80;;;4.70;;
3565;SDS011;1797;51.844;7.684;2024-03-22T11:08:03;12.07;;;3.57;;
3565;SDS011;1797;51.844;7.684;2024-03-22T11:10:39;13.03;;;5.40;;
3565;SDS011;1797;51.844;7.684;2024-03-22T11:13:05;12.80;;;5.97;;
3565;SDS011;1797;51.844;7.684;2024-03-22T11:15:32;9.53;;;4.67;;
3565;SDS011;1797;51.844;7.684;2024-03-22T11:17:58;20.73;;;7.37;;
3565;SDS011;1797;51.844;7.684;2024-03-22T11:20:25;11.07;;;5.90;;
3565;SDS011;1797;51.844;7.684;2024-03-22T11:22:51;5.90;;;4.20;;
3565;SDS011;1797;51.844;7.684;2024-03-22T11:25:18;17.60;;;5.03;;
3565;SDS011;1797;51.844;7.684;2024-03-22T11:27:45;14.27;;;7.27;;
3565;SDS011;1797;51.844;7.684;2024-03-22T11:30:11;7.57;;;4.37;;
3565;SDS011;1797;51.844;7.684;2024-03-22T11:32:37;10.40;;;4.87;;
3565;SDS011;1797;51.844;7.684;2024-03-22T11:35:12;13.30;;;5.33;;
3565;SDS011;1797;51.844;7.684;2024-03-22T11:37:41;11.97;;;6.77;;
3565;SDS011;1797;51.844;7.684;2024-03-22T11:40:10;20.63;;;7.27;;
3565;SDS011;1797;51.844;7.684;2024-03-22T11:42:41;12.40;;;4.10;;
3565;SDS011;1797;51.844;7.684;2024-03-22T11:45:10;19.60;;;5.97;;
3565;SDS011;1797;51.844;7.684;2024-03-22T11:47:36;9.00;;;6.23;;
3565;SDS011;1797;51.844;7.684;2024-03-22T11:50:03;19.87;;;6.40;;
3565;SDS011;1797;51.844;7.684;2024-03-22T11:52:30;8.93;;;4.53;;
3565;SDS011;1797;51.844;7.684;2024-03-22T11:54:56;9.90;;;5.43;;
3565;SDS011;1797;51.844;7.684;2024-03-22T11:57:23;12.77;;;5.40;;
3565;SDS011;1797;51.844;7.684;2024-03-22T11:59:49;20.57;;;6.33;;
3565;SDS011;1797;51.844;7.684;2024-03-22T12:02:16;12.73;;;6.73;;
3565;SDS011;1797;51.844;7.684;2024-03-22T12:04:45;6.77;;;3.23;;
3565;SDS011;1797;51.844;7.684;2024-03-22T12:07:16;14.40;;;5.93;;
3565;SDS011;1797;51.844;7.684;2024-03-22T12:09:42;8.60;;;5.63;;
3565;SDS011;1797;51.844;7.684;2024-03-22T12:12:09;10.47;;;5.47;;
3565;SDS011;1797;51.844;7.684;2024-03-22T12:14:35;4.77;;;3.50;;
3565;SDS011;1797;51.844;7.684;2024-03-22T12:17:01;8.00;;;4.30;;
3565;SDS011;1797;51.844;7.684;2024-03-22T12:19:28;13.93;;;5.63;;
3565;SDS011;1797;51.844;7.684;2024-03-22T12:21:54;10.00;;;5.80;;
3565;SDS011;1797;51.844;7.684;2024-03-22T12:24:20;12.10;;;6.37;;
3565;SDS011;1797;51.844;7.684;2024-03-22T12:26:46;10.27;;;4.70;;
3565;SDS011;1797;51.844;7.684;2024-03-22T12:29:13;15.43;;;4.80;;
3565;SDS011;1797;51.844;7.684;2024-03-22T12:31:39;12.10;;;5.77;;
3565;SDS011;1797;51.844;7.684;2024-03-22T12:34:06;13.83;;;7.30;;
3565;SDS011;1797;51.844;7.684;2024-03-22T12:36:32;19.60;;;8.00;;
3565;SDS011;1797;51.844;7.684;2024-03-22T12:38:58;15.53;;;9.20;;
3565;SDS011;1797;51.844;7.684;2024-03-22T12:41:24;28.53;;;8.30;;
3565;SDS011;1797;51.844;7.684;2024-03-22T12:43:50;9.03;;;5.77;;
3565;SDS011;1797;51.844;7.684;2024-03-22T12:46:16;16.07;;;3.90;;
3565;SDS011;1797;51.844;7.684;2024-03-22T12:48:43;17.00;;;5.87;;
3565;SDS011;1797;51.844;7.684;2024-03-22T12:51:09;18.33;;;7.73;;
3565;SDS011;1797;51.844;7.684;2024-03-22T12:53:35;10.00;;;5.00;;
3565;SDS011;1797;51.844;7.684;2024-03-22T12:56:01;22.53;;;8.17;;
3565;SDS011;1797;51.844;7.684;2024-03-22T12:58:29;8.97;;;4.10;;
3565;SDS011;1797;51.844;7.684;2024-03-22T13:00:55;12.33;;;4.47;;
3565;SDS011;1797;51.844;7.684;2024-03-22T13:03:21;6.73;;;4.77;;
3565;SDS011;1797;51.844;7.684;2024-03-22T13:05:46;13.70;;;5.77;;
3565;SDS011;1797;51.844;7.684;2024-03-22T13:08:12;10.50;;;2.50;;
3565;SDS011;1797;51.844;7.684;2024-03-22T13:10:38;8.90;;;5.43;;
3565;SDS011;1797;51.844;7.684;2024-03-22T13:13:08;16.87;;;8.20;;
3565;SDS011;1797;51.844;7.684;2024-03-22T13:15:34;10.73;;;7.10;;
3565;SDS011;1797;51.844;7.684;2024-03-22T13:18:02;14.23;;;5.77;;
3565;SDS011;1797;51.844;7.684;2024-03-22T13:20:28;18.20;;;6.40;;
3565;SDS011;1797;51.844;7.684;2024-03-22T13:22:54;22.27;;;6.60;;
3565;SDS011;1797;51.844;7.684;2024-03-22T13:25:20;12.33;;;6.93;;
3565;SDS011;1797;51.844;7.684;2024-03-22T13:27:46;23.07;;;6.63;;
3565;SDS011;1797;51.844;7.684;2024-03-22T13:30:12;23.73;;;9.67;;
3565;SDS011;1797;51.844;7.684;2024-03-22T13:32:39;16.83;;;6.97;;
3565;SDS011;1797;51.844;7.684;2024-03-22T13:35:05;21.40;;;4.03;;
3565;SDS011;1797;51.844;7.684;2024-03-22T13:37:32;10.63;;;3.00;;
3565;SDS011;1797;51.844;7.684;2024-03-22T13:39:58;10.17;;;4.70;;
3565;SDS011;1797;51.844;7.684;2024-03-22T13:42:25;9.20;;;5.27;;
3565;SDS011;1797;51.844;7.684;2024-03-22T13:44:51;19.07;;;5.93;;
3565;SDS011;1797;51.844;7.684;2024-03-22T13:47:17;12.30;;;6.83;;
3565;SDS011;1797;51.844;7.684;2024-03-22T13:49:43;14.43;;;4.80;;
3565;SDS011;1797;51.844;7.684;2024-03-22T13:52:10;12.60;;;7.03;;
3565;SDS011;1797;51.844;7.684;2024-03-22T13:54:36;12.60;;;5.97;;
3565;SDS011;1797;51.844;7.684;2024-03-22T13:57:02;8.33;;;5.47;;
3565;SDS011;1797;51.844;7.684;2024-03-22T13:59:28;9.43;;;4.67;;
3565;SDS011;1797;51.844;7.684;2024-03-22T14:01:55;15.30;;;5.30;;
3565;SDS011;1797;51.844;7.684;2024-03-22T14:04:21;9.77;;;4.73;;
3565;SDS011;1797;51.844;7.684;2024-03-22T14:06:48;14.87;;;5.57;;
3565;SDS011;1797;51.844;7.684;2024-03-22T14:09:14;21.53;;;7.87;;
3565;SDS011;1797;51.844;7.684;2024-03-22T14:11:40;18.67;;;5.97;;
3565;SDS011;1797;51.844;7.684;2024-03-22T14:14:09;15.57;;;5.20;;
3565;SDS011;1797;51.844;7.684;2024-03-22T14:16:36;16.73;;;6.00;;
3565;SDS011;1797;51.844;7.684;2024-03-22T14:19:02;19.23;;;7.43;;
3565;SDS011;1797;51.844;7.684;2024-03-22T14:21:28;12.00;;;5.53;;
3565;SDS011;1797;51.844;7.684;2024-03-22T14:23:54;17.10;;;7.10;;
3565;SDS011;1797;51.844;7.684;2024-03-22T14:26:20;16.90;;;8.40;;
3565;SDS011;1797;51.844;7.684;2024-03-22T14:28:46;11.70;;;4.28;;
3565;SDS011;1797;51.844;7.684;2024-03-22T14:31:12;12.47;;;4.20;;
3565;SDS011;1797;51.844;7.684;2024-03-22T14:33:39;16.20;;;7.37;;
3565;SDS011;1797;51.844;7.684;2024-03-22T14:36:06;32.33;;;7.30;;
3565;SDS011;1797;51.844;7.684;2024-03-22T14:38:32;21.60;;;9.82;;
3565;SDS011;1797;51.844;7.684;2024-03-22T14:40:58;22.80;;;7.33;;
3565;SDS011;1797;51.844;7.684;2024-03-22T14:43:25;14.93;;;7.70;;
3565;SDS011;1797;51.844;7.684;2024-03-22T14:45:51;13.70;;;6.57;;
3565;SDS011;1797;51.844;7.684;2024-03-22T14:48:18;25.17;;;8.70;;
3565;SDS011;1797;51.844;7.684;2024-03-22T14:50:44;13.68;;;6.82;;
3565;SDS011;1797;51.844;7.684;2024-03-22T14:53:10;13.05;;;5.82;;
3565;SDS011;1797;51.844;7.684;2024-03-22T14:55:36;13.50;;;6.50;;